sensor_id;sensor_type;location;lat;lon;timestamp;temperature;humidity
19847;DHT22;10084;50.518;8.588;2022-08-26T00:00:40;21.50;52.90
19847;DHT22;10084;50.518;8.588;2022-08-26T00:03:06;21.50;52.90
19847;DHT22;10084;50.518;8.588;2022-08-26T00:05:32;21.50;53.00
19847;DHT22;10084;50.518;8.588;2022-08-26T00:07:58;21.40;53.00
19847;DHT22;10084;50.518;8.588;2022-08-26T00:10:24;21.40;53.10
19847;DHT22;10084;50.518;8.588;2022-08-26T00:12:50;21.40;53.10
19847;DHT22;10084;50.518;8.588;2022-08-26T00:15:17;21.40;53.20
19847;DHT22;10084;50.518;8.588;2022-08-26T00:17:44;21.40;53.30
19847;DHT22;10084;50.518;8.588;2022-08-26T00:20:13;21.30;53.40
19847;DHT22;10084;50.518;8.588;2022-08-26T00:22:39;21.30;53.60
19847;DHT22;10084;50.518;8.588;2022-08-26T00:25:06;21.20;53.80
19847;DHT22;10084;50.518;8.588;2022-08-26T00:27:33;21.30;53.90
19847;DHT22;10084;50.518;8.588;2022-08-26T00:30:00;21.30;53.90
19847;DHT22;10084;50.518;8.588;2022-08-26T00:32:26;21.30;53.90
19847;DHT22;10084;50.518;8.588;2022-08-26T00:34:52;21.20;53.90
19847;DHT22;10084;50.518;8.588;2022-08-26T00:37:18;21.20;53.90
19847;DHT22;10084;50.518;8.588;2022-08-26T00:39:44;21.20;53.90
19847;DHT22;10084;50.518;8.588;2022-08-26T00:42:10;21.10;54.00
19847;DHT22;10084;50.518;8.588;2022-08-26T00:44:36;21.00;59.00
19847;DHT22;10084;50.518;8.588;2022-08-26T00:47:04;20.80;56.80
19847;DHT22;10084;50.518;8.588;2022-08-26T00:49:42;20.70;54.80
19847;DHT22;10084;50.518;8.588;2022-08-26T00:52:12;20.70;54.80
19847;DHT22;10084;50.518;8.588;2022-08-26T00:54:46;20.60;54.90
19847;DHT22;10084;50.518;8.588;2022-08-26T00:57:16;20.60;54.90
19847;DHT22;10084;50.518;8.588;2022-08-26T00:59:46;20.60;55.00
19847;DHT22;10084;50.518;8.588;2022-08-26T01:02:12;20.60;55.00
19847;DHT22;10084;50.518;8.588;2022-08-26T01:04:38;20.70;55.00
19847;DHT22;10084;50.518;8.588;2022-08-26T01:07:06;20.70;55.00
19847;DHT22;10084;50.518;8.588;2022-08-26T01:09:32;20.70;55.80
19847;DHT22;10084;50.518;8.588;2022-08-26T01:12:00;20.70;55.20
19847;DHT22;10084;50.518;8.588;2022-08-26T01:14:31;20.70;55.20
19847;DHT22;10084;50.518;8.588;2022-08-26T01:16:57;20.70;55.30
19847;DHT22;10084;50.518;8.588;2022-08-26T01:19:53;20.60;55.30
19847;DHT22;10084;50.518;8.588;2022-08-26T01:22:27;20.60;55.40
19847;DHT22;10084;50.518;8.588;2022-08-26T01:25:00;20.60;55.50
19847;DHT22;10084;50.518;8.588;2022-08-26T01:27:27;20.60;55.60
19847;DHT22;10084;50.518;8.588;2022-08-26T01:29:57;20.50;55.70
19847;DHT22;10084;50.518;8.588;2022-08-26T01:32:23;20.50;55.80
19847;DHT22;10084;50.518;8.588;2022-08-26T01:34:50;20.50;55.90
19847;DHT22;10084;50.518;8.588;2022-08-26T01:37:24;20.50;56.00
19847;DHT22;10084;50.518;8.588;2022-08-26T01:39:54;20.50;56.00
19847;DHT22;10084;50.518;8.588;2022-08-26T01:42:23;20.40;56.00
19847;DHT22;10084;50.518;8.588;2022-08-26T01:45:00;20.40;56.10
19847;DHT22;10084;50.518;8.588;2022-08-26T01:47:29;20.30;56.20
19847;DHT22;10084;50.518;8.588;2022-08-26T01:49:55;20.30;56.40
19847;DHT22;10084;50.518;8.588;2022-08-26T01:52:26;20.30;56.50
19847;DHT22;10084;50.518;8.588;2022-08-26T01:54:53;20.30;56.60
19847;DHT22;10084;50.518;8.588;2022-08-26T01:57:20;20.30;56.60
19847;DHT22;10084;50.518;8.588;2022-08-26T02:02:13;20.20;64.20
19847;DHT22;10084;50.518;8.588;2022-08-26T02:04:46;20.20;61.60
19847;DHT22;10084;50.518;8.588;2022-08-26T02:07:14;20.20;61.40
19847;DHT22;10084;50.518;8.588;2022-08-26T02:09:41;20.20;63.70
19847;DHT22;10084;50.518;8.588;2022-08-26T02:12:09;20.20;63.90
19847;DHT22;10084;50.518;8.588;2022-08-26T02:14:39;20.20;62.90
19847;DHT22;10084;50.518;8.588;2022-08-26T02:17:07;20.20;65.20
19847;DHT22;10084;50.518;8.588;2022-08-26T02:19:36;20.30;68.10
19847;DHT22;10084;50.518;8.588;2022-08-26T02:22:06;20.30;74.90
19847;DHT22;10084;50.518;8.588;2022-08-26T02:24:56;20.30;65.40
19847;DHT22;10084;50.518;8.588;2022-08-26T02:27:25;20.30;64.60
19847;DHT22;10084;50.518;8.588;2022-08-26T02:29:55;20.30;65.80
19847;DHT22;10084;50.518;8.588;2022-08-26T02:32:22;20.30;64.20
19847;DHT22;10084;50.518;8.588;2022-08-26T02:34:48;20.20;65.40
19847;DHT22;10084;50.518;8.588;2022-08-26T02:37:14;20.30;64.20
19847;DHT22;10084;50.518;8.588;2022-08-26T02:39:41;20.20;65.20
19847;DHT22;10084;50.518;8.588;2022-08-26T02:42:07;20.20;63.80
19847;DHT22;10084;50.518;8.588;2022-08-26T02:44:33;20.10;64.30
19847;DHT22;10084;50.518;8.588;2022-08-26T02:46:59;20.10;64.70
19847;DHT22;10084;50.518;8.588;2022-08-26T02:49:26;20.10;65.00
19847;DHT22;10084;50.518;8.588;2022-08-26T02:51:52;20.10;64.40
19847;DHT22;10084;50.518;8.588;2022-08-26T02:54:19;20.10;64.70
19847;DHT22;10084;50.518;8.588;2022-08-26T02:56:48;20.10;63.60
19847;DHT22;10084;50.518;8.588;2022-08-26T02:59:15;20.10;62.10
19847;DHT22;10084;50.518;8.588;2022-08-26T03:01:43;20.00;61.80
19847;DHT22;10084;50.518;8.588;2022-08-26T03:04:14;20.00;63.30
19847;DHT22;10084;50.518;8.588;2022-08-26T03:06:39;20.00;62.10
19847;DHT22;10084;50.518;8.588;2022-08-26T03:09:06;20.00;63.40
19847;DHT22;10084;50.518;8.588;2022-08-26T03:11:32;20.00;62.90
19847;DHT22;10084;50.518;8.588;2022-08-26T03:13:58;20.00;63.10
19847;DHT22;10084;50.518;8.588;2022-08-26T03:16:25;19.90;64.20
19847;DHT22;10084;50.518;8.588;2022-08-26T03:18:50;19.90;58.20
19847;DHT22;10084;50.518;8.588;2022-08-26T03:21:17;19.80;59.60
19847;DHT22;10084;50.518;8.588;2022-08-26T03:23:44;19.70;59.20
19847;DHT22;10084;50.518;8.588;2022-08-26T03:26:11;19.60;59.20
19847;DHT22;10084;50.518;8.588;2022-08-26T03:28:38;19.60;59.30
19847;DHT22;10084;50.518;8.588;2022-08-26T03:31:27;19.60;59.60
19847;DHT22;10084;50.518;8.588;2022-08-26T03:33:53;19.50;59.80
19847;DHT22;10084;50.518;8.588;2022-08-26T03:36:19;19.50;60.10
19847;DHT22;10084;50.518;8.588;2022-08-26T03:38:45;19.50;60.70
19847;DHT22;10084;50.518;8.588;2022-08-26T03:41:11;19.60;61.10
19847;DHT22;10084;50.518;8.588;2022-08-26T03:43:37;19.60;61.60
19847;DHT22;10084;50.518;8.588;2022-08-26T03:46:08;19.60;61.70
19847;DHT22;10084;50.518;8.588;2022-08-26T03:48:34;19.50;62.30
19847;DHT22;10084;50.518;8.588;2022-08-26T03:51:03;19.50;61.30
19847;DHT22;10084;50.518;8.588;2022-08-26T03:53:29;19.50;60.70
19847;DHT22;10084;50.518;8.588;2022-08-26T03:55:54;19.40;60.70
19847;DHT22;10084;50.518;8.588;2022-08-26T03:58:20;19.40;60.60
19847;DHT22;10084;50.518;8.588;2022-08-26T04:00:46;19.40;60.50
19847;DHT22;10084;50.518;8.588;2022-08-26T04:03:12;19.40;60.50
19847;DHT22;10084;50.518;8.588;2022-08-26T04:05:58;19.30;60.50
19847;DHT22;10084;50.518;8.588;2022-08-26T04:08:23;19.30;61.40
19847;DHT22;10084;50.518;8.588;2022-08-26T04:10:49;19.20;61.80
19847;DHT22;10084;50.518;8.588;2022-08-26T04:13:15;19.20;63.20
19847;DHT22;10084;50.518;8.588;2022-08-26T04:15:40;19.10;64.50
19847;DHT22;10084;50.518;8.588;2022-08-26T04:18:06;19.10;66.00
19847;DHT22;10084;50.518;8.588;2022-08-26T04:20:32;19.00;68.60
19847;DHT22;10084;50.518;8.588;2022-08-26T04:22:57;19.00;69.90
19847;DHT22;10084;50.518;8.588;2022-08-26T04:25:23;19.00;70.90
19847;DHT22;10084;50.518;8.588;2022-08-26T04:27:49;19.10;78.60
19847;DHT22;10084;50.518;8.588;2022-08-26T04:30:15;19.00;82.50
19847;DHT22;10084;50.518;8.588;2022-08-26T04:32:40;19.00;86.10
19847;DHT22;10084;50.518;8.588;2022-08-26T04:35:06;18.50;85.90
19847;DHT22;10084;50.518;8.588;2022-08-26T04:37:32;19.00;78.20
19847;DHT22;10084;50.518;8.588;2022-08-26T04:39:58;19.00;75.00
19847;DHT22;10084;50.518;8.588;2022-08-26T04:42:23;19.00;76.90
19847;DHT22;10084;50.518;8.588;2022-08-26T04:44:49;19.00;74.90
19847;DHT22;10084;50.518;8.588;2022-08-26T04:47:15;18.90;81.00
19847;DHT22;10084;50.518;8.588;2022-08-26T04:49:40;19.00;76.90
19847;DHT22;10084;50.518;8.588;2022-08-26T04:52:06;18.80;80.70
19847;DHT22;10084;50.518;8.588;2022-08-26T04:54:32;19.00;78.90
19847;DHT22;10084;50.518;8.588;2022-08-26T04:56:58;19.00;82.00
19847;DHT22;10084;50.518;8.588;2022-08-26T04:59:23;19.10;75.20
19847;DHT22;10084;50.518;8.588;2022-08-26T05:01:51;19.10;76.40
19847;DHT22;10084;50.518;8.588;2022-08-26T05:04:18;19.10;78.90
19847;DHT22;10084;50.518;8.588;2022-08-26T05:06:44;19.20;81.80
19847;DHT22;10084;50.518;8.588;2022-08-26T05:09:12;19.20;83.40
19847;DHT22;10084;50.518;8.588;2022-08-26T05:11:39;19.30;74.70
19847;DHT22;10084;50.518;8.588;2022-08-26T05:14:05;19.30;73.70
19847;DHT22;10084;50.518;8.588;2022-08-26T05:16:31;19.30;74.60
19847;DHT22;10084;50.518;8.588;2022-08-26T05:18:56;19.40;75.80
19847;DHT22;10084;50.518;8.588;2022-08-26T05:21:25;19.50;82.20
19847;DHT22;10084;50.518;8.588;2022-08-26T05:23:52;19.70;81.30
19847;DHT22;10084;50.518;8.588;2022-08-26T05:26:20;19.90;80.90
19847;DHT22;10084;50.518;8.588;2022-08-26T05:28:46;20.10;83.70
19847;DHT22;10084;50.518;8.588;2022-08-26T05:31:16;20.30;82.20
19847;DHT22;10084;50.518;8.588;2022-08-26T05:33:42;20.60;82.60
19847;DHT22;10084;50.518;8.588;2022-08-26T05:36:15;20.80;84.30
19847;DHT22;10084;50.518;8.588;2022-08-26T05:38:41;21.50;82.20
19847;DHT22;10084;50.518;8.588;2022-08-26T05:41:19;21.40;76.00
19847;DHT22;10084;50.518;8.588;2022-08-26T05:43:46;21.60;73.70
19847;DHT22;10084;50.518;8.588;2022-08-26T05:46:12;21.90;60.80
19847;DHT22;10084;50.518;8.588;2022-08-26T05:48:38;22.20;60.80
19847;DHT22;10084;50.518;8.588;2022-08-26T05:51:06;22.50;60.80
19847;DHT22;10084;50.518;8.588;2022-08-26T05:53:33;22.80;60.60
19847;DHT22;10084;50.518;8.588;2022-08-26T05:55:59;23.10;60.60
19847;DHT22;10084;50.518;8.588;2022-08-26T05:58:26;23.50;60.90
19847;DHT22;10084;50.518;8.588;2022-08-26T06:00:57;23.90;61.00
19847;DHT22;10084;50.518;8.588;2022-08-26T06:03:23;24.40;60.90
19847;DHT22;10084;50.518;8.588;2022-08-26T06:05:49;24.90;60.70
19847;DHT22;10084;50.518;8.588;2022-08-26T06:08:14;25.30;60.50
19847;DHT22;10084;50.518;8.588;2022-08-26T06:10:58;25.60;60.20
19847;DHT22;10084;50.518;8.588;2022-08-26T06:13:26;26.00;59.90
19847;DHT22;10084;50.518;8.588;2022-08-26T06:15:53;26.30;59.50
19847;DHT22;10084;50.518;8.588;2022-08-26T06:18:22;26.40;59.00
19847;DHT22;10084;50.518;8.588;2022-08-26T06:20:49;26.60;58.80
19847;DHT22;10084;50.518;8.588;2022-08-26T06:23:17;26.80;58.60
19847;DHT22;10084;50.518;8.588;2022-08-26T06:26:03;26.80;58.20
19847;DHT22;10084;50.518;8.588;2022-08-26T06:28:29;26.80;57.70
19847;DHT22;10084;50.518;8.588;2022-08-26T06:30:54;26.60;57.40
19847;DHT22;10084;50.518;8.588;2022-08-26T06:33:22;26.40;57.20
19847;DHT22;10084;50.518;8.588;2022-08-26T06:35:48;26.20;57.00
19847;DHT22;10084;50.518;8.588;2022-08-26T06:38:15;26.00;56.90
19847;DHT22;10084;50.518;8.588;2022-08-26T06:40:44;25.90;57.00
19847;DHT22;10084;50.518;8.588;2022-08-26T06:43:11;25.80;56.90
19847;DHT22;10084;50.518;8.588;2022-08-26T06:45:38;25.70;57.00
19847;DHT22;10084;50.518;8.588;2022-08-26T06:48:05;25.60;57.10
19847;DHT22;10084;50.518;8.588;2022-08-26T06:50:32;25.70;57.20
19847;DHT22;10084;50.518;8.588;2022-08-26T06:52:58;25.80;57.20
19847;DHT22;10084;50.518;8.588;2022-08-26T06:55:24;26.00;57.30
19847;DHT22;10084;50.518;8.588;2022-08-26T06:57:49;26.30;57.40
19847;DHT22;10084;50.518;8.588;2022-08-26T07:00:16;26.70;57.70
19847;DHT22;10084;50.518;8.588;2022-08-26T07:02:43;27.40;57.70
19847;DHT22;10084;50.518;8.588;2022-08-26T07:05:08;28.00;57.50
19847;DHT22;10084;50.518;8.588;2022-08-26T07:07:34;28.40;57.00
19847;DHT22;10084;50.518;8.588;2022-08-26T07:10:00;28.80;56.50
19847;DHT22;10084;50.518;8.588;2022-08-26T07:12:26;29.20;56.30
19847;DHT22;10084;50.518;8.588;2022-08-26T07:14:52;29.60;56.20
19847;DHT22;10084;50.518;8.588;2022-08-26T07:17:18;29.90;56.00
19847;DHT22;10084;50.518;8.588;2022-08-26T07:19:44;30.40;56.90
19847;DHT22;10084;50.518;8.588;2022-08-26T07:22:11;30.80;56.30
19847;DHT22;10084;50.518;8.588;2022-08-26T07:24:38;31.20;56.10
19847;DHT22;10084;50.518;8.588;2022-08-26T07:27:09;31.50;55.60
19847;DHT22;10084;50.518;8.588;2022-08-26T07:29:37;31.70;55.10
19847;DHT22;10084;50.518;8.588;2022-08-26T07:32:04;32.00;55.00
19847;DHT22;10084;50.518;8.588;2022-08-26T07:34:31;32.30;55.40
19847;DHT22;10084;50.518;8.588;2022-08-26T07:36:57;32.70;57.00
19847;DHT22;10084;50.518;8.588;2022-08-26T07:39:23;33.10;57.40
19847;DHT22;10084;50.518;8.588;2022-08-26T07:41:50;33.50;57.50
19847;DHT22;10084;50.518;8.588;2022-08-26T07:44:16;33.70;58.10
19847;DHT22;10084;50.518;8.588;2022-08-26T07:46:42;33.90;58.60
19847;DHT22;10084;50.518;8.588;2022-08-26T07:49:08;34.00;57.50
19847;DHT22;10084;50.518;8.588;2022-08-26T07:51:34;34.00;57.30
19847;DHT22;10084;50.518;8.588;2022-08-26T07:54:02;34.00;57.00
19847;DHT22;10084;50.518;8.588;2022-08-26T07:56:28;33.90;56.60
19847;DHT22;10084;50.518;8.588;2022-08-26T07:58:53;33.80;56.30
19847;DHT22;10084;50.518;8.588;2022-08-26T08:01:20;33.70;56.10
19847;DHT22;10084;50.518;8.588;2022-08-26T08:03:47;33.50;55.80
19847;DHT22;10084;50.518;8.588;2022-08-26T08:06:20;33.30;55.80
19847;DHT22;10084;50.518;8.588;2022-08-26T08:08:46;33.00;55.70
19847;DHT22;10084;50.518;8.588;2022-08-26T08:11:12;32.90;55.80
19847;DHT22;10084;50.518;8.588;2022-08-26T08:13:38;32.80;55.80
19847;DHT22;10084;50.518;8.588;2022-08-26T08:16:04;32.80;55.80
19847;DHT22;10084;50.518;8.588;2022-08-26T08:18:31;32.70;55.70
19847;DHT22;10084;50.518;8.588;2022-08-26T08:20:57;32.70;55.90
19847;DHT22;10084;50.518;8.588;2022-08-26T08:23:25;32.60;55.80
19847;DHT22;10084;50.518;8.588;2022-08-26T08:25:59;32.60;56.00
19847;DHT22;10084;50.518;8.588;2022-08-26T08:28:25;32.60;55.90
19847;DHT22;10084;50.518;8.588;2022-08-26T08:30:51;32.60;56.00
19847;DHT22;10084;50.518;8.588;2022-08-26T08:33:17;32.60;55.80
19847;DHT22;10084;50.518;8.588;2022-08-26T08:35:43;32.60;56.10
19847;DHT22;10084;50.518;8.588;2022-08-26T08:38:10;32.60;56.60
19847;DHT22;10084;50.518;8.588;2022-08-26T08:40:39;32.70;57.10
19847;DHT22;10084;50.518;8.588;2022-08-26T08:43:09;32.80;58.10
19847;DHT22;10084;50.518;8.588;2022-08-26T08:45:36;32.80;59.50
19847;DHT22;10084;50.518;8.588;2022-08-26T08:50:41;32.70;62.80
19847;DHT22;10084;50.518;8.588;2022-08-26T08:53:20;32.70;56.80
19847;DHT22;10084;50.518;8.588;2022-08-26T08:56:11;32.70;55.40
19847;DHT22;10084;50.518;8.588;2022-08-26T09:01:54;32.70;54.40
19847;DHT22;10084;50.518;8.588;2022-08-26T09:07:26;32.90;53.80
19847;DHT22;10084;50.518;8.588;2022-08-26T09:10:02;32.90;53.30
19847;DHT22;10084;50.518;8.588;2022-08-26T09:12:31;32.90;53.10
19847;DHT22;10084;50.518;8.588;2022-08-26T09:15:06;33.00;53.10
19847;DHT22;10084;50.518;8.588;2022-08-26T09:20:42;33.30;52.80
19847;DHT22;10084;50.518;8.588;2022-08-26T09:23:11;33.40;51.60
19847;DHT22;10084;50.518;8.588;2022-08-26T09:25:55;33.50;51.00
19847;DHT22;10084;50.518;8.588;2022-08-26T09:28:23;33.60;50.60
19847;DHT22;10084;50.518;8.588;2022-08-26T09:33:46;33.60;50.50
19847;DHT22;10084;50.518;8.588;2022-08-26T09:36:35;33.40;50.40
19847;DHT22;10084;50.518;8.588;2022-08-26T09:39:01;33.30;50.40
19847;DHT22;10084;50.518;8.588;2022-08-26T09:41:30;33.10;50.10
19847;DHT22;10084;50.518;8.588;2022-08-26T09:44:10;33.00;50.40
19847;DHT22;10084;50.518;8.588;2022-08-26T09:46:45;33.00;50.50
19847;DHT22;10084;50.518;8.588;2022-08-26T09:49:25;33.00;50.30
19847;DHT22;10084;50.518;8.588;2022-08-26T09:54:40;33.20;50.50
19847;DHT22;10084;50.518;8.588;2022-08-26T09:59:37;33.10;50.40
19847;DHT22;10084;50.518;8.588;2022-08-26T10:04:50;32.80;50.30
19847;DHT22;10084;50.518;8.588;2022-08-26T10:09:58;32.60;50.50
19847;DHT22;10084;50.518;8.588;2022-08-26T10:12:24;32.50;50.50
19847;DHT22;10084;50.518;8.588;2022-08-26T10:14:56;32.60;50.60
19847;DHT22;10084;50.518;8.588;2022-08-26T10:17:32;32.70;50.40
19847;DHT22;10084;50.518;8.588;2022-08-26T10:23:05;33.20;51.30
19847;DHT22;10084;50.518;8.588;2022-08-26T10:25:36;33.60;50.60
19847;DHT22;10084;50.518;8.588;2022-08-26T10:28:07;33.90;50.70
19847;DHT22;10084;50.518;8.588;2022-08-26T10:30:41;34.10;50.50
19847;DHT22;10084;50.518;8.588;2022-08-26T10:33:12;34.40;50.60
19847;DHT22;10084;50.518;8.588;2022-08-26T10:35:54;34.60;50.00
19847;DHT22;10084;50.518;8.588;2022-08-26T10:38:36;34.90;46.20
19847;DHT22;10084;50.518;8.588;2022-08-26T10:41:13;35.10;46.10
19847;DHT22;10084;50.518;8.588;2022-08-26T10:43:48;35.30;44.10
19847;DHT22;10084;50.518;8.588;2022-08-26T10:46:19;35.50;44.00
19847;DHT22;10084;50.518;8.588;2022-08-26T10:48:55;35.60;43.70
19847;DHT22;10084;50.518;8.588;2022-08-26T10:51:30;35.80;43.80
19847;DHT22;10084;50.518;8.588;2022-08-26T10:54:08;35.90;44.20
19847;DHT22;10084;50.518;8.588;2022-08-26T10:56:43;36.00;44.20
19847;DHT22;10084;50.518;8.588;2022-08-26T11:05:05;36.20;44.20
19847;DHT22;10084;50.518;8.588;2022-08-26T11:07:51;36.30;44.10
19847;DHT22;10084;50.518;8.588;2022-08-26T11:12:55;36.40;43.70
19847;DHT22;10084;50.518;8.588;2022-08-26T11:22:53;36.50;44.20
19847;DHT22;10084;50.518;8.588;2022-08-26T11:25:20;36.50;43.30
19847;DHT22;10084;50.518;8.588;2022-08-26T11:27:52;36.60;39.50
19847;DHT22;10084;50.518;8.588;2022-08-26T11:32:50;36.60;39.20
19847;DHT22;10084;50.518;8.588;2022-08-26T11:37:57;36.80;39.00
19847;DHT22;10084;50.518;8.588;2022-08-26T11:40:34;36.80;38.70
19847;DHT22;10084;50.518;8.588;2022-08-26T11:43:14;36.80;38.40
19847;DHT22;10084;50.518;8.588;2022-08-26T11:46:01;36.80;38.30
19847;DHT22;10084;50.518;8.588;2022-08-26T11:48:36;36.80;38.20
19847;DHT22;10084;50.518;8.588;2022-08-26T11:53:39;36.80;38.10
19847;DHT22;10084;50.518;8.588;2022-08-26T11:56:08;36.80;37.90
19847;DHT22;10084;50.518;8.588;2022-08-26T11:58:40;36.80;37.80
19847;DHT22;10084;50.518;8.588;2022-08-26T12:01:07;36.80;37.70
19847;DHT22;10084;50.518;8.588;2022-08-26T12:03:49;36.70;37.50
19847;DHT22;10084;50.518;8.588;2022-08-26T12:08:49;36.60;37.40
19847;DHT22;10084;50.518;8.588;2022-08-26T12:11:29;36.60;37.40
19847;DHT22;10084;50.518;8.588;2022-08-26T12:14:01;36.60;37.30
19847;DHT22;10084;50.518;8.588;2022-08-26T12:16:30;36.70;37.30
19847;DHT22;10084;50.518;8.588;2022-08-26T12:18:56;36.90;37.40
19847;DHT22;10084;50.518;8.588;2022-08-26T12:21:28;37.10;37.30
19847;DHT22;10084;50.518;8.588;2022-08-26T12:23:56;37.30;37.00
19847;DHT22;10084;50.518;8.588;2022-08-26T12:26:31;37.40;36.70
19847;DHT22;10084;50.518;8.588;2022-08-26T12:29:06;37.50;36.40
19847;DHT22;10084;50.518;8.588;2022-08-26T12:31:35;37.40;36.20
19847;DHT22;10084;50.518;8.588;2022-08-26T12:34:04;37.20;35.90
19847;DHT22;10084;50.518;8.588;2022-08-26T12:36:34;36.80;36.00
19847;DHT22;10084;50.518;8.588;2022-08-26T12:39:06;36.30;36.10
19847;DHT22;10084;50.518;8.588;2022-08-26T12:41:53;35.70;36.20
19847;DHT22;10084;50.518;8.588;2022-08-26T12:44:33;35.20;36.50
19847;DHT22;10084;50.518;8.588;2022-08-26T12:47:09;34.60;36.60
19847;DHT22;10084;50.518;8.588;2022-08-26T12:49:37;34.10;36.60
19847;DHT22;10084;50.518;8.588;2022-08-26T12:52:05;33.70;36.80
19847;DHT22;10084;50.518;8.588;2022-08-26T12:54:32;33.30;37.00
19847;DHT22;10084;50.518;8.588;2022-08-26T12:57:17;32.90;37.20
19847;DHT22;10084;50.518;8.588;2022-08-26T12:59:49;32.60;37.50
19847;DHT22;10084;50.518;8.588;2022-08-26T13:02:35;32.50;37.70
19847;DHT22;10084;50.518;8.588;2022-08-26T13:05:02;32.50;37.80
19847;DHT22;10084;50.518;8.588;2022-08-26T13:07:27;32.30;37.80
19847;DHT22;10084;50.518;8.588;2022-08-26T13:09:55;32.10;37.90
19847;DHT22;10084;50.518;8.588;2022-08-26T13:12:30;31.90;38.10
19847;DHT22;10084;50.518;8.588;2022-08-26T13:14:58;31.70;38.70
19847;DHT22;10084;50.518;8.588;2022-08-26T13:17:26;31.40;38.60
19847;DHT22;10084;50.518;8.588;2022-08-26T13:19:52;31.20;40.70
19847;DHT22;10084;50.518;8.588;2022-08-26T13:22:21;30.90;39.30
19847;DHT22;10084;50.518;8.588;2022-08-26T13:24:53;30.70;39.40
19847;DHT22;10084;50.518;8.588;2022-08-26T13:27:22;30.50;39.60
19847;DHT22;10084;50.518;8.588;2022-08-26T13:29:49;30.30;40.70
19847;DHT22;10084;50.518;8.588;2022-08-26T13:32:16;30.10;40.50
19847;DHT22;10084;50.518;8.588;2022-08-26T13:34:46;30.00;40.60
19847;DHT22;10084;50.518;8.588;2022-08-26T13:37:12;29.90;40.70
19847;DHT22;10084;50.518;8.588;2022-08-26T13:39:38;29.80;41.10
19847;DHT22;10084;50.518;8.588;2022-08-26T13:42:06;29.70;41.30
19847;DHT22;10084;50.518;8.588;2022-08-26T13:44:32;29.60;41.40
19847;DHT22;10084;50.518;8.588;2022-08-26T13:46:58;29.50;41.60
19847;DHT22;10084;50.518;8.588;2022-08-26T13:49:24;29.50;41.80
19847;DHT22;10084;50.518;8.588;2022-08-26T13:51:49;29.50;42.00
19847;DHT22;10084;50.518;8.588;2022-08-26T13:54:15;29.40;42.20
19847;DHT22;10084;50.518;8.588;2022-08-26T13:56:41;29.40;42.40
19847;DHT22;10084;50.518;8.588;2022-08-26T13:59:07;29.30;42.50
19847;DHT22;10084;50.518;8.588;2022-08-26T14:01:34;29.30;42.70
19847;DHT22;10084;50.518;8.588;2022-08-26T14:04:00;29.20;42.90
19847;DHT22;10084;50.518;8.588;2022-08-26T14:06:30;29.20;43.10
19847;DHT22;10084;50.518;8.588;2022-08-26T14:08:56;29.10;43.50
19847;DHT22;10084;50.518;8.588;2022-08-26T14:11:21;29.10;44.80
19847;DHT22;10084;50.518;8.588;2022-08-26T14:13:49;29.00;45.10
19847;DHT22;10084;50.518;8.588;2022-08-26T14:16:22;29.00;46.30
19847;DHT22;10084;50.518;8.588;2022-08-26T14:18:49;29.00;46.30
19847;DHT22;10084;50.518;8.588;2022-08-26T14:21:14;29.00;46.30
19847;DHT22;10084;50.518;8.588;2022-08-26T14:23:40;29.00;46.50
19847;DHT22;10084;50.518;8.588;2022-08-26T14:26:06;29.00;46.60
19847;DHT22;10084;50.518;8.588;2022-08-26T14:28:34;29.00;46.60
19847;DHT22;10084;50.518;8.588;2022-08-26T14:31:01;29.00;46.70
19847;DHT22;10084;50.518;8.588;2022-08-26T14:33:28;29.00;46.70
19847;DHT22;10084;50.518;8.588;2022-08-26T14:35:57;29.10;46.90
19847;DHT22;10084;50.518;8.588;2022-08-26T14:38:43;29.00;47.00
19847;DHT22;10084;50.518;8.588;2022-08-26T14:41:09;29.10;47.30
19847;DHT22;10084;50.518;8.588;2022-08-26T14:43:35;29.10;47.40
19847;DHT22;10084;50.518;8.588;2022-08-26T14:46:03;29.10;47.50
19847;DHT22;10084;50.518;8.588;2022-08-26T14:48:28;29.20;47.70
19847;DHT22;10084;50.518;8.588;2022-08-26T14:50:54;29.20;47.70
19847;DHT22;10084;50.518;8.588;2022-08-26T14:53:20;29.20;47.90
19847;DHT22;10084;50.518;8.588;2022-08-26T14:56:04;29.30;48.10
19847;DHT22;10084;50.518;8.588;2022-08-26T14:58:30;29.30;48.10
19847;DHT22;10084;50.518;8.588;2022-08-26T15:00:56;29.40;48.10
19847;DHT22;10084;50.518;8.588;2022-08-26T15:03:21;29.40;48.20
19847;DHT22;10084;50.518;8.588;2022-08-26T15:05:47;29.50;48.20
19847;DHT22;10084;50.518;8.588;2022-08-26T15:08:13;29.50;48.20
19847;DHT22;10084;50.518;8.588;2022-08-26T15:10:38;29.60;48.20
19847;DHT22;10084;50.518;8.588;2022-08-26T15:13:04;29.70;48.50
19847;DHT22;10084;50.518;8.588;2022-08-26T15:15:30;29.70;48.50
19847;DHT22;10084;50.518;8.588;2022-08-26T15:17:55;29.70;48.70
19847;DHT22;10084;50.518;8.588;2022-08-26T15:20:21;29.80;48.90
19847;DHT22;10084;50.518;8.588;2022-08-26T15:22:47;29.80;49.00
19847;DHT22;10084;50.518;8.588;2022-08-26T15:25:13;29.80;49.00
19847;DHT22;10084;50.518;8.588;2022-08-26T15:27:39;29.80;49.30
19847;DHT22;10084;50.518;8.588;2022-08-26T15:30:08;29.80;49.60
19847;DHT22;10084;50.518;8.588;2022-08-26T15:32:35;29.80;49.80
19847;DHT22;10084;50.518;8.588;2022-08-26T15:35:01;29.80;49.90
19847;DHT22;10084;50.518;8.588;2022-08-26T15:37:28;29.70;49.90
19847;DHT22;10084;50.518;8.588;2022-08-26T15:39:54;29.80;50.20
19847;DHT22;10084;50.518;8.588;2022-08-26T15:42:21;29.70;50.20
19847;DHT22;10084;50.518;8.588;2022-08-26T15:44:47;29.70;50.30
19847;DHT22;10084;50.518;8.588;2022-08-26T15:47:13;29.70;50.40
19847;DHT22;10084;50.518;8.588;2022-08-26T15:49:40;29.60;50.20
19847;DHT22;10084;50.518;8.588;2022-08-26T15:52:05;29.60;50.50
19847;DHT22;10084;50.518;8.588;2022-08-26T15:54:31;29.50;50.60
19847;DHT22;10084;50.518;8.588;2022-08-26T15:57:00;29.50;50.70
19847;DHT22;10084;50.518;8.588;2022-08-26T15:59:27;29.40;50.80
19847;DHT22;10084;50.518;8.588;2022-08-26T16:01:53;29.30;50.90
19847;DHT22;10084;50.518;8.588;2022-08-26T16:04:19;29.30;50.90
19847;DHT22;10084;50.518;8.588;2022-08-26T16:06:46;29.20;50.90
19847;DHT22;10084;50.518;8.588;2022-08-26T16:09:14;29.10;50.00
19847;DHT22;10084;50.518;8.588;2022-08-26T16:11:40;29.10;49.60
19847;DHT22;10084;50.518;8.588;2022-08-26T16:14:07;29.00;48.80
19847;DHT22;10084;50.518;8.588;2022-08-26T16:16:35;28.90;48.20
19847;DHT22;10084;50.518;8.588;2022-08-26T16:19:01;28.80;47.90
19847;DHT22;10084;50.518;8.588;2022-08-26T16:21:26;28.70;47.30
19847;DHT22;10084;50.518;8.588;2022-08-26T16:23:53;28.60;47.20
19847;DHT22;10084;50.518;8.588;2022-08-26T16:26:24;28.60;46.50
19847;DHT22;10084;50.518;8.588;2022-08-26T16:28:51;28.50;46.30
19847;DHT22;10084;50.518;8.588;2022-08-26T16:31:17;28.40;46.30
19847;DHT22;10084;50.518;8.588;2022-08-26T16:33:43;28.30;46.40
19847;DHT22;10084;50.518;8.588;2022-08-26T16:36:09;28.30;46.50